sensor_id;sensor_type;location;lat;lon;timestamp;pressure;altitude;pressure_sealevel;temperature;humidity
59493;BME280;45497;43.996;22.876;2023-03-19T00:02:23;101986.41;;;5.46;51.10
59493;BME280;45497;43.996;22.876;2023-03-19T00:04:48;101992.59;;;5.32;51.39
59493;BME280;45497;43.996;22.876;2023-03-19T00:07:14;101981.22;;;5.06;52.08
59493;BME280;45497;43.996;22.876;2023-03-19T00:09:40;101984.88;;;4.91;52.75
59493;BME280;45497;43.996;22.876;2023-03-19T00:12:07;101985.59;;;4.93;52.91
59493;BME280;45497;43.996;22.876;2023-03-19T00:14:33;101984.47;;;4.97;52.22
59493;BME280;45497;43.996;22.876;2023-03-19T00:16:58;101976.59;;;4.97;52.71
59493;BME280;45497;43.996;22.876;2023-03-19T00:19:24;101982.88;;;4.94;52.42
59493;BME280;45497;43.996;22.876;2023-03-19T00:21:50;101986.84;;;4.87;52.26
59493;BME280;45497;43.996;22.876;2023-03-19T00:24:15;101985.56;;;4.80;51.76
59493;BME280;45497;43.996;22.876;2023-03-19T00:26:42;101980.72;;;4.74;52.02
59493;BME280;45497;43.996;22.876;2023-03-19T00:29:07;101992.00;;;4.89;51.26
59493;BME280;45497;43.996;22.876;2023-03-19T00:31:33;101984.97;;;5.02;50.46
59493;BME280;45497;43.996;22.876;2023-03-19T00:34:00;101988.88;;;5.09;50.22
59493;BME280;45497;43.996;22.876;2023-03-19T00:36:27;101976.81;;;5.07;50.00
59493;BME280;45497;43.996;22.876;2023-03-19T00:38:53;101983.75;;;5.08;50.18
59493;BME280;45497;43.996;22.876;2023-03-19T00:41:19;101984.34;;;4.98;49.69
59493;BME280;45497;43.996;22.876;2023-03-19T00:43:46;101987.41;;;4.92;49.36
59493;BME280;45497;43.996;22.876;2023-03-19T00:46:11;101979.69;;;4.89;49.26
59493;BME280;45497;43.996;22.876;2023-03-19T00:48:37;101980.13;;;4.83;49.03
59493;BME280;45497;43.996;22.876;2023-03-19T00:51:07;101981.06;;;4.82;49.23
59493;BME280;45497;43.996;22.876;2023-03-19T00:53:38;101973.34;;;4.66;49.81
59493;BME280;45497;43.996;22.876;2023-03-19T00:56:04;101968.50;;;4.60;49.63
59493;BME280;45497;43.996;22.876;2023-03-19T00:58:31;101972.19;;;4.57;49.83
59493;BME280;45497;43.996;22.876;2023-03-19T01:00:57;101970.31;;;4.72;49.33
59493;BME280;45497;43.996;22.876;2023-03-19T01:03:22;101982.50;;;4.73;49.13
59493;BME280;45497;43.996;22.876;2023-03-19T01:05:48;101979.72;;;4.62;48.98
59493;BME280;45497;43.996;22.876;2023-03-19T01:08:15;101975.91;;;4.53;49.47
59493;BME280;45497;43.996;22.876;2023-03-19T01:10:41;101989.19;;;4.37;49.66
59493;BME280;45497;43.996;22.876;2023-03-19T01:13:06;101981.97;;;4.41;49.50
59493;BME280;45497;43.996;22.876;2023-03-19T01:15:36;101974.72;;;4.45;49.39
59493;BME280;45497;43.996;22.876;2023-03-19T01:18:01;101971.69;;;4.38;49.34
59493;BME280;45497;43.996;22.876;2023-03-19T01:20:27;101971.34;;;4.43;49.48
59493;BME280;45497;43.996;22.876;2023-03-19T01:22:52;101964.88;;;4.48;48.94
59493;BME280;45497;43.996;22.876;2023-03-19T01:25:18;101969.19;;;4.49;48.63
59493;BME280;45497;43.996;22.876;2023-03-19T01:27:43;101956.34;;;4.45;48.75
59493;BME280;45497;43.996;22.876;2023-03-19T01:30:09;101960.56;;;4.47;49.03
59493;BME280;45497;43.996;22.876;2023-03-19T01:32:35;101960.47;;;4.49;48.65
59493;BME280;45497;43.996;22.876;2023-03-19T01:35:00;101958.88;;;4.46;48.84
59493;BME280;45497;43.996;22.876;2023-03-19T01:37:26;101961.09;;;4.39;49.16
59493;BME280;45497;43.996;22.876;2023-03-19T01:39:51;101955.06;;;4.37;48.86
59493;BME280;45497;43.996;22.876;2023-03-19T01:42:17;101951.06;;;4.32;48.89
59493;BME280;45497;43.996;22.876;2023-03-19T01:44:42;101956.63;;;4.27;48.92
59493;BME280;45497;43.996;22.876;2023-03-19T01:47:30;101955.41;;;4.18;49.46
59493;BME280;45497;43.996;22.876;2023-03-19T01:49:58;101956.66;;;4.13;49.92
59493;BME280;45497;43.996;22.876;2023-03-19T01:52:28;101949.63;;;3.99;49.70
59493;BME280;45497;43.996;22.876;2023-03-19T01:54:56;101947.41;;;3.93;49.87
59493;BME280;45497;43.996;22.876;2023-03-19T01:57:23;101937.78;;;3.79;50.42
59493;BME280;45497;43.996;22.876;2023-03-19T01:59:52;101942.53;;;3.72;50.55
59493;BME280;45497;43.996;22.876;2023-03-19T02:02:24;101940.13;;;3.83;50.86
59493;BME280;45497;43.996;22.876;2023-03-19T02:05:05;101940.97;;;3.84;50.47
59493;BME280;45497;43.996;22.876;2023-03-19T02:07:33;101949.28;;;3.91;50.48
59493;BME280;45497;43.996;22.876;2023-03-19T02:10:00;101947.09;;;3.97;50.17
59493;BME280;45497;43.996;22.876;2023-03-19T02:12:28;101947.78;;;3.87;50.78
59493;BME280;45497;43.996;22.876;2023-03-19T02:14:53;101952.69;;;3.64;51.27
59493;BME280;45497;43.996;22.876;2023-03-19T02:17:20;101964.38;;;3.30;52.14
59493;BME280;45497;43.996;22.876;2023-03-19T02:19:58;101956.63;;;2.98;52.36
59493;BME280;45497;43.996;22.876;2023-03-19T02:22:28;101960.84;;;3.00;52.42
59493;BME280;45497;43.996;22.876;2023-03-19T02:25:01;101969.09;;;3.09;52.18
59493;BME280;45497;43.996;22.876;2023-03-19T02:27:27;101968.72;;;3.15;51.80
59493;BME280;45497;43.996;22.876;2023-03-19T02:29:52;101967.91;;;3.14;51.78
59493;BME280;45497;43.996;22.876;2023-03-19T02:32:18;101966.47;;;3.09;51.84
59493;BME280;45497;43.996;22.876;2023-03-19T02:34:44;101964.59;;;2.96;51.95
59493;BME280;45497;43.996;22.876;2023-03-19T02:37:15;101964.09;;;2.90;52.35
59493;BME280;45497;43.996;22.876;2023-03-19T02:39:58;101960.88;;;2.84;52.50
59493;BME280;45497;43.996;22.876;2023-03-19T02:42:28;101959.25;;;2.98;52.10
59493;BME280;45497;43.996;22.876;2023-03-19T02:44:54;101963.94;;;3.07;51.87
59493;BME280;45497;43.996;22.876;2023-03-19T02:47:20;101957.31;;;3.16;51.43
59493;BME280;45497;43.996;22.876;2023-03-19T02:49:46;101958.00;;;3.34;50.78
59493;BME280;45497;43.996;22.876;2023-03-19T02:52:11;101960.16;;;3.41;50.67
59493;BME280;45497;43.996;22.876;2023-03-19T02:54:37;101960.25;;;3.40;50.74
59493;BME280;45497;43.996;22.876;2023-03-19T02:57:02;101964.66;;;3.39;50.76
59493;BME280;45497;43.996;22.876;2023-03-19T02:59:28;101960.06;;;3.43;50.46
59493;BME280;45497;43.996;22.876;2023-03-19T03:01:53;101963.91;;;3.52;50.44
59493;BME280;45497;43.996;22.876;2023-03-19T03:04:19;101967.38;;;3.52;50.43
59493;BME280;45497;43.996;22.876;2023-03-19T03:06:44;101966.81;;;3.47;50.68
59493;BME280;45497;43.996;22.876;2023-03-19T03:09:11;101972.13;;;3.45;50.57
59493;BME280;45497;43.996;22.876;2023-03-19T03:11:38;101961.94;;;3.41;50.33
59493;BME280;45497;43.996;22.876;2023-03-19T03:14:05;101959.16;;;3.44;50.66
59493;BME280;45497;43.996;22.876;2023-03-19T03:16:31;101960.91;;;3.43;50.54
59493;BME280;45497;43.996;22.876;2023-03-19T03:18:57;101963.25;;;3.48;50.42
59493;BME280;45497;43.996;22.876;2023-03-19T03:21:22;101963.41;;;3.31;51.15
59493;BME280;45497;43.996;22.876;2023-03-19T03:23:48;101970.97;;;3.06;51.76
59493;BME280;45497;43.996;22.876;2023-03-19T03:26:14;101957.47;;;2.98;51.79
59493;BME280;45497;43.996;22.876;2023-03-19T03:28:39;101964.41;;;2.69;52.70
59493;BME280;45497;43.996;22.876;2023-03-19T03:31:05;101969.44;;;2.42;53.40
59493;BME280;45497;43.996;22.876;2023-03-19T03:33:30;101965.69;;;2.46;53.18
59493;BME280;45497;43.996;22.876;2023-03-19T03:35:57;101961.31;;;2.46;53.18
59493;BME280;45497;43.996;22.876;2023-03-19T03:38:22;101961.41;;;2.45;52.81
59493;BME280;45497;43.996;22.876;2023-03-19T03:40:51;101974.66;;;2.58;52.58
59493;BME280;45497;43.996;22.876;2023-03-19T03:43:18;101957.25;;;2.57;52.41
59493;BME280;45497;43.996;22.876;2023-03-19T03:45:47;101971.53;;;2.51;52.53
59493;BME280;45497;43.996;22.876;2023-03-19T03:48:13;101982.44;;;2.43;53.17
59493;BME280;45497;43.996;22.876;2023-03-19T03:50:39;101976.59;;;2.22;53.61
59493;BME280;45497;43.996;22.876;2023-03-19T03:53:05;101978.97;;;2.11;53.67
59493;BME280;45497;43.996;22.876;2023-03-19T03:55:31;101984.81;;;2.16;53.65
59493;BME280;45497;43.996;22.876;2023-03-19T03:57:57;101984.91;;;2.31;53.07
59493;BME280;45497;43.996;22.876;2023-03-19T04:00:23;101974.22;;;2.34;53.03
59493;BME280;45497;43.996;22.876;2023-03-19T04:02:49;101982.34;;;2.45;52.52
59493;BME280;45497;43.996;22.876;2023-03-19T04:05:15;101986.88;;;2.57;52.25
59493;BME280;45497;43.996;22.876;2023-03-19T04:07:40;101976.81;;;2.65;51.79
59493;BME280;45497;43.996;22.876;2023-03-19T04:10:07;101977.75;;;2.64;51.72
59493;BME280;45497;43.996;22.876;2023-03-19T04:12:36;101985.38;;;2.53;51.95
59493;BME280;45497;43.996;22.876;2023-03-19T04:15:03;101980.72;;;2.42;52.38
59493;BME280;45497;43.996;22.876;2023-03-19T04:17:29;101990.03;;;2.16;53.34
59493;BME280;45497;43.996;22.876;2023-03-19T04:19:54;101983.50;;;1.91;54.10
59493;BME280;45497;43.996;22.876;2023-03-19T04:22:20;101984.88;;;1.99;54.11
59493;BME280;45497;43.996;22.876;2023-03-19T04:24:46;101986.75;;;2.13;53.98
59493;BME280;45497;43.996;22.876;2023-03-19T04:27:11;101997.03;;;2.32;53.52
59493;BME280;45497;43.996;22.876;2023-03-19T04:29:37;101981.69;;;2.41;53.05
59493;BME280;45497;43.996;22.876;2023-03-19T04:32:02;101994.78;;;2.41;53.14
59493;BME280;45497;43.996;22.876;2023-03-19T04:34:28;101989.19;;;2.32;53.23
59493;BME280;45497;43.996;22.876;2023-03-19T04:36:54;101991.97;;;2.13;53.63
59493;BME280;45497;43.996;22.876;2023-03-19T04:39:20;101992.22;;;2.08;53.88
59493;BME280;45497;43.996;22.876;2023-03-19T04:41:46;101991.25;;;1.77;54.93
59493;BME280;45497;43.996;22.876;2023-03-19T04:44:11;101993.34;;;1.70;55.31
59493;BME280;45497;43.996;22.876;2023-03-19T04:46:37;101994.13;;;1.88;54.91
59493;BME280;45497;43.996;22.876;2023-03-19T04:49:03;101989.44;;;2.11;54.44
59493;BME280;45497;43.996;22.876;2023-03-19T04:51:28;101989.25;;;2.30;53.97
59493;BME280;45497;43.996;22.876;2023-03-19T04:53:54;101979.66;;;2.31;53.53
59493;BME280;45497;43.996;22.876;2023-03-19T04:56:19;101981.09;;;2.36;53.68
59493;BME280;45497;43.996;22.876;2023-03-19T04:58:46;101974.06;;;2.37;53.75
59493;BME280;45497;43.996;22.876;2023-03-19T05:01:11;101976.16;;;2.62;53.28
59493;BME280;45497;43.996;22.876;2023-03-19T05:03:37;101969.19;;;2.77;52.86
59493;BME280;45497;43.996;22.876;2023-03-19T05:06:02;101977.00;;;2.93;52.55
59493;BME280;45497;43.996;22.876;2023-03-19T05:08:28;101969.06;;;2.94;52.32
59493;BME280;45497;43.996;22.876;2023-03-19T05:10:54;101970.97;;;3.06;52.25
59493;BME280;45497;43.996;22.876;2023-03-19T05:13:19;101966.47;;;3.09;52.20
59493;BME280;45497;43.996;22.876;2023-03-19T05:15:45;101972.56;;;3.09;52.13
59493;BME280;45497;43.996;22.876;2023-03-19T05:18:12;101979.50;;;3.10;52.44
59493;BME280;45497;43.996;22.876;2023-03-19T05:20:39;101972.47;;;3.11;52.71
59493;BME280;45497;43.996;22.876;2023-03-19T05:23:06;101970.25;;;3.19;52.27
59493;BME280;45497;43.996;22.876;2023-03-19T05:25:33;101974.75;;;3.31;52.43
59493;BME280;45497;43.996;22.876;2023-03-19T05:27:59;101965.69;;;3.37;52.44
59493;BME280;45497;43.996;22.876;2023-03-19T05:30:25;101964.94;;;3.49;52.29
59493;BME280;45497;43.996;22.876;2023-03-19T05:32:51;101969.25;;;3.64;52.21
59493;BME280;45497;43.996;22.876;2023-03-19T05:35:17;101977.69;;;3.84;52.02
59493;BME280;45497;43.996;22.876;2023-03-19T05:37:42;101978.44;;;3.86;51.91
59493;BME280;45497;43.996;22.876;2023-03-19T05:40:08;101974.59;;;3.77;52.46
59493;BME280;45497;43.996;22.876;2023-03-19T05:42:34;101979.81;;;3.77;52.34
59493;BME280;45497;43.996;22.876;2023-03-19T05:44:59;101986.69;;;3.80;52.57
59493;BME280;45497;43.996;22.876;2023-03-19T05:47:25;101989.66;;;3.74;53.13
59493;BME280;45497;43.996;22.876;2023-03-19T05:49:51;101989.41;;;3.64;53.35
59493;BME280;45497;43.996;22.876;2023-03-19T05:52:16;101990.06;;;3.68;53.52
59493;BME280;45497;43.996;22.876;2023-03-19T05:54:42;102002.97;;;3.71;53.31
59493;BME280;45497;43.996;22.876;2023-03-19T05:57:07;102004.81;;;3.54;53.48
59493;BME280;45497;43.996;22.876;2023-03-19T05:59:33;102002.59;;;3.62;53.45
59493;BME280;45497;43.996;22.876;2023-03-19T06:01:59;102000.53;;;3.68;53.11
59493;BME280;45497;43.996;22.876;2023-03-19T06:04:24;101993.91;;;3.76;52.76
59493;BME280;45497;43.996;22.876;2023-03-19T06:06:50;102002.88;;;3.87;52.99
59493;BME280;45497;43.996;22.876;2023-03-19T06:09:16;101998.09;;;3.93;53.09
59493;BME280;45497;43.996;22.876;2023-03-19T06:11:41;101999.88;;;3.93;53.30
59493;BME280;45497;43.996;22.876;2023-03-19T06:14:07;102001.84;;;4.04;53.33
59493;BME280;45497;43.996;22.876;2023-03-19T06:16:32;102004.59;;;4.29;52.68
59493;BME280;45497;43.996;22.876;2023-03-19T06:18:58;102001.94;;;4.44;52.88
59493;BME280;45497;43.996;22.876;2023-03-19T06:21:24;102008.81;;;4.59;52.79
59493;BME280;45497;43.996;22.876;2023-03-19T06:23:55;102003.47;;;4.60;52.63
59493;BME280;45497;43.996;22.876;2023-03-19T06:26:21;102013.81;;;4.76;53.09
59493;BME280;45497;43.996;22.876;2023-03-19T06:28:46;102003.69;;;4.97;52.30
59493;BME280;45497;43.996;22.876;2023-03-19T06:31:12;102011.00;;;5.20;52.69
59493;BME280;45497;43.996;22.876;2023-03-19T06:33:37;102013.72;;;5.31;52.77
59493;BME280;45497;43.996;22.876;2023-03-19T06:36:03;102002.72;;;5.39;52.45
59493;BME280;45497;43.996;22.876;2023-03-19T06:38:28;102008.81;;;5.52;52.52
59493;BME280;45497;43.996;22.876;2023-03-19T06:40:54;102008.16;;;5.61;52.52
59493;BME280;45497;43.996;22.876;2023-03-19T06:43:19;102011.31;;;5.79;52.30
59493;BME280;45497;43.996;22.876;2023-03-19T06:45:45;102000.78;;;5.92;51.87
59493;BME280;45497;43.996;22.876;2023-03-19T06:48:11;101993.53;;;5.96;52.09
59493;BME280;45497;43.996;22.876;2023-03-19T06:50:36;102007.81;;;6.17;52.11
59493;BME280;45497;43.996;22.876;2023-03-19T06:53:02;102008.78;;;6.16;52.01
59493;BME280;45497;43.996;22.876;2023-03-19T06:55:27;101997.47;;;6.27;51.82
59493;BME280;45497;43.996;22.876;2023-03-19T06:57:55;102000.38;;;6.35;52.04
59493;BME280;45497;43.996;22.876;2023-03-19T07:00:21;102006.88;;;6.42;51.35
59493;BME280;45497;43.996;22.876;2023-03-19T07:02:46;102012.34;;;6.52;51.57
59493;BME280;45497;43.996;22.876;2023-03-19T07:05:12;102021.13;;;6.64;51.53
59493;BME280;45497;43.996;22.876;2023-03-19T07:07:37;102014.03;;;6.77;51.68
59493;BME280;45497;43.996;22.876;2023-03-19T07:10:03;102006.41;;;6.97;51.40
59493;BME280;45497;43.996;22.876;2023-03-19T07:12:29;102008.75;;;7.13;51.11
59493;BME280;45497;43.996;22.876;2023-03-19T07:14:55;102002.56;;;7.25;50.62
59493;BME280;45497;43.996;22.876;2023-03-19T07:17:22;101999.38;;;7.44;50.79
59493;BME280;45497;43.996;22.876;2023-03-19T07:19:48;101995.41;;;7.50;50.80
59493;BME280;45497;43.996;22.876;2023-03-19T07:22:13;102000.56;;;7.62;50.45
59493;BME280;45497;43.996;22.876;2023-03-19T07:24:38;101999.50;;;7.76;50.88
59493;BME280;45497;43.996;22.876;2023-03-19T07:27:04;101991.34;;;7.91;50.58
59493;BME280;45497;43.996;22.876;2023-03-19T07:29:30;101987.88;;;8.01;50.49
59493;BME280;45497;43.996;22.876;2023-03-19T07:31:55;102002.84;;;8.12;50.40
59493;BME280;45497;43.996;22.876;2023-03-19T07:34:21;101992.75;;;8.29;50.15
59493;BME280;45497;43.996;22.876;2023-03-19T07:36:47;101995.22;;;8.41;49.82
59493;BME280;45497;43.996;22.876;2023-03-19T07:39:13;101993.63;;;8.61;49.08
59493;BME280;45497;43.996;22.876;2023-03-19T07:41:39;101988.94;;;8.65;48.90
59493;BME280;45497;43.996;22.876;2023-03-19T07:44:05;101997.69;;;8.77;48.54
59493;BME280;45497;43.996;22.876;2023-03-19T07:46:31;101994.16;;;8.88;48.13
59493;BME280;45497;43.996;22.876;2023-03-19T07:48:56;101989.94;;;8.85;47.87
59493;BME280;45497;43.996;22.876;2023-03-19T07:51:21;101988.56;;;8.91;48.00
59493;BME280;45497;43.996;22.876;2023-03-19T07:53:47;101983.75;;;8.96;47.96
59493;BME280;45497;43.996;22.876;2023-03-19T07:56:13;101981.31;;;9.04;47.44
59493;BME280;45497;43.996;22.876;2023-03-19T07:58:38;101978.97;;;9.11;47.25
59493;BME280;45497;43.996;22.876;2023-03-19T08:01:04;101980.72;;;9.22;47.39
59493;BME280;45497;43.996;22.876;2023-03-19T08:03:30;101984.72;;;9.37;46.72
59493;BME280;45497;43.996;22.876;2023-03-19T08:05:55;101976.53;;;9.40;46.53
59493;BME280;45497;43.996;22.876;2023-03-19T08:08:21;101979.06;;;9.51;45.79
59493;BME280;45497;43.996;22.876;2023-03-19T08:10:46;101982.56;;;9.52;45.87
59493;BME280;45497;43.996;22.876;2023-03-19T08:13:14;101984.94;;;9.55;45.03
59493;BME280;45497;43.996;22.876;2023-03-19T08:15:40;101986.91;;;9.53;44.37
59493;BME280;45497;43.996;22.876;2023-03-19T08:18:05;101991.56;;;9.70;44.59
59493;BME280;45497;43.996;22.876;2023-03-19T08:20:31;101993.56;;;9.78;44.01
59493;BME280;45497;43.996;22.876;2023-03-19T08:22:57;101987.56;;;9.76;43.65
59493;BME280;45497;43.996;22.876;2023-03-19T08:25:23;101998.44;;;9.83;44.40
59493;BME280;45497;43.996;22.876;2023-03-19T08:27:49;101986.50;;;9.98;44.24
59493;BME280;45497;43.996;22.876;2023-03-19T08:30:15;101982.09;;;10.18;44.22
59493;BME280;45497;43.996;22.876;2023-03-19T08:32:41;101988.00;;;10.31;44.40
59493;BME280;45497;43.996;22.876;2023-03-19T08:35:09;101990.13;;;10.38;43.58
59493;BME280;45497;43.996;22.876;2023-03-19T08:37:34;101994.59;;;10.47;43.51
59493;BME280;45497;43.996;22.876;2023-03-19T08:40:00;101982.47;;;10.64;43.39
59493;BME280;45497;43.996;22.876;2023-03-19T08:42:26;101982.47;;;10.74;43.05
59493;BME280;45497;43.996;22.876;2023-03-19T08:44:51;101985.81;;;10.85;42.52
59493;BME280;45497;43.996;22.876;2023-03-19T08:47:17;101987.22;;;10.80;41.89
59493;BME280;45497;43.996;22.876;2023-03-19T08:49:42;101979.38;;;10.78;41.71
59493;BME280;45497;43.996;22.876;2023-03-19T08:52:08;101970.44;;;10.69;41.46
59493;BME280;45497;43.996;22.876;2023-03-19T08:54:34;101965.72;;;10.63;41.72
59493;BME280;45497;43.996;22.876;2023-03-19T08:57:01;101974.22;;;10.86;41.68
59493;BME280;45497;43.996;22.876;2023-03-19T08:59:26;101968.91;;;11.06;41.75
59493;BME280;45497;43.996;22.876;2023-03-19T09:01:52;101969.16;;;11.22;41.21
59493;BME280;45497;43.996;22.876;2023-03-19T09:04:19;101961.34;;;11.21;40.46
59493;BME280;45497;43.996;22.876;2023-03-19T09:06:45;101953.09;;;11.24;40.37
59493;BME280;45497;43.996;22.876;2023-03-19T09:09:15;101952.09;;;11.35;40.95
59493;BME280;45497;43.996;22.876;2023-03-19T09:11:40;101945.22;;;11.42;40.49
59493;BME280;45497;43.996;22.876;2023-03-19T09:14:06;101938.91;;;11.43;40.51
59493;BME280;45497;43.996;22.876;2023-03-19T09:16:31;101941.88;;;11.40;41.06
59493;BME280;45497;43.996;22.876;2023-03-19T09:18:57;101938.28;;;11.59;40.49
59493;BME280;45497;43.996;22.876;2023-03-19T09:21:22;101934.59;;;11.70;41.00
59493;BME280;45497;43.996;22.876;2023-03-19T09:23:48;101931.66;;;11.73;40.66
59493;BME280;45497;43.996;22.876;2023-03-19T09:26:13;101923.44;;;11.66;39.82
59493;BME280;45497;43.996;22.876;2023-03-19T09:28:39;101927.53;;;11.60;40.23
59493;BME280;45497;43.996;22.876;2023-03-19T09:31:08;101925.53;;;11.62;40.16
59493;BME280;45497;43.996;22.876;2023-03-19T09:33:34;101940.03;;;11.78;40.08
59493;BME280;45497;43.996;22.876;2023-03-19T09:35:59;101934.66;;;11.88;39.63
59493;BME280;45497;43.996;22.876;2023-03-19T09:38:25;101929.06;;;11.91;39.59
59493;BME280;45497;43.996;22.876;2023-03-19T09:41:16;101931.31;;;11.85;39.68
59493;BME280;45497;43.996;22.876;2023-03-19T09:44:01;101928.63;;;11.95;39.76
59493;BME280;45497;43.996;22.876;2023-03-19T09:46:32;101926.06;;;12.03;39.74
59493;BME280;45497;43.996;22.876;2023-03-19T09:49:13;101930.03;;;12.17;39.80
59493;BME280;45497;43.996;22.876;2023-03-19T09:51:55;101927.69;;;12.32;39.65
59493;BME280;45497;43.996;22.876;2023-03-19T09:56:54;101917.88;;;12.51;39.74
59493;BME280;45497;43.996;22.876;2023-03-19T09:59:25;101917.28;;;12.57;39.43
59493;BME280;45497;43.996;22.876;2023-03-19T10:02:11;101911.25;;;12.55;39.55
59493;BME280;45497;43.996;22.876;2023-03-19T10:11:19;101883.22;;;12.87;40.94
59493;BME280;45497;43.996;22.876;2023-03-19T10:15:51;101880.34;;;12.80;38.76
59493;BME280;45497;43.996;22.876;2023-03-19T10:18:27;101882.53;;;12.85;38.20
59493;BME280;45497;43.996;22.876;2023-03-19T10:21:09;101871.53;;;12.79;38.20
59493;BME280;45497;43.996;22.876;2023-03-19T10:26:26;101862.59;;;12.89;38.67
59493;BME280;45497;43.996;22.876;2023-03-19T10:31:39;101861.78;;;13.14;38.72
59493;BME280;45497;43.996;22.876;2023-03-19T10:34:31;101861.88;;;13.31;40.30
59493;BME280;45497;43.996;22.876;2023-03-19T10:37:02;101856.38;;;13.32;39.99
59493;BME280;45497;43.996;22.876;2023-03-19T10:39:30;101868.47;;;13.27;39.15
